Time;durP1;ratioP1;P1;durP2;ratioP2;P2;SDS_P1;SDS_P2;PMS_P1;PMS_P2;Temp;Humidity;BMP_temperature;BMP_pressure;BME280_temperature;BME280_humidity;BME280_pressure;Samples;Min_cycle;Max_cycle;Signal;HPM_P1;HPM_P2
2021/12/13 00:06:44;;;;;;;4.35;2.22;;;8.00;99.90;;;;;;6702706;88;20305;-77
2021/12/13 00:16:49;;;;;;;4.75;2.78;;;7.90;99.90;;;;;;6693783;88;20729;-75
2021/12/13 00:26:59;;;;;;;5.27;3.10;;;7.80;99.90;;;;;;6690361;88;20202;-75
2021/12/13 00:37:20;;;;;;;5.90;3.05;;;7.80;99.90;;;;;;6694699;88;20207;-75
2021/12/13 00:47:25;;;;;;;4.80;2.97;;;7.90;99.90;;;;;;6691284;88;20173;-75
2021/12/13 00:57:47;;;;;;;5.70;3.30;;;7.90;99.90;;;;;;6690276;88;20188;-75
2021/12/13 01:08:15;;;;;;;5.22;3.65;;;7.90;99.90;;;;;;6698968;88;20241;-75
2021/12/13 01:18:29;;;;;;;6.18;3.70;;;7.90;99.90;;;;;;6693778;88;20269;-75
2021/12/13 01:28:37;;;;;;;5.35;3.60;;;7.70;99.90;;;;;;6688840;88;20195;-74
2021/12/13 01:38:50;;;;;;;7.37;4.03;;;7.80;99.90;;;;;;6689564;88;20237;-75
2021/12/13 01:48:52;;;;;;;5.60;3.35;;;7.70;99.90;;;;;;6695933;88;20187;-74
2021/12/13 01:58:57;;;;;;;5.45;3.03;;;7.80;99.90;;;;;;6700238;88;20198;-74
2021/12/13 02:09:05;;;;;;;4.25;2.50;;;7.80;99.90;;;;;;6698183;88;20820;-74
2021/12/13 02:19:08;;;;;;;4.85;2.40;;;7.80;99.90;;;;;;6693315;88;20198;-74
2021/12/13 02:29:22;;;;;;;4.45;2.42;;;7.90;99.90;;;;;;6700629;88;20292;-75
2021/12/13 02:39:31;;;;;;;5.00;2.90;;;7.90;99.90;;;;;;6693137;88;20949;-75
2021/12/13 02:49:32;;;;;;;6.53;3.08;;;7.90;99.90;;;;;;6697023;88;20608;-74
2021/12/13 02:59:36;;;;;;;5.07;2.97;;;7.90;99.90;;;;;;6707118;88;20930;-74
2021/12/13 03:09:39;;;;;;;6.18;3.40;;;7.80;99.90;;;;;;6702241;88;20178;-74
2021/12/13 03:19:42;;;;;;;9.05;2.65;;;7.80;99.90;;;;;;6705912;88;20218;-74
2021/12/13 03:29:59;;;;;;;6.97;2.58;;;7.90;99.90;;;;;;6702832;88;20175;-74
2021/12/13 03:40:10;;;;;;;5.50;2.55;;;7.90;99.90;;;;;;6710850;88;20219;-74
2021/12/13 03:50:16;;;;;;;5.40;2.22;;;7.80;99.90;;;;;;6700469;88;20215;-75
2021/12/13 04:00:21;;;;;;;4.37;2.35;;;7.80;99.90;;;;;;6703745;88;20303;-74
2021/12/13 04:10:31;;;;;;;4.50;2.60;;;7.90;99.90;;;;;;6695412;88;20191;-74
2021/12/13 04:20:36;;;;;;;6.18;2.90;;;7.80;99.90;;;;;;6704934;88;20213;-74
2021/12/13 04:30:56;;;;;;;5.68;3.00;;;7.70;99.90;;;;;;6702606;88;20636;-74
2021/12/13 04:40:56;;;;;;;6.30;3.10;;;7.60;99.90;;;;;;6697094;88;20163;-74
2021/12/13 04:51:14;;;;;;;5.10;2.80;;;7.60;99.90;;;;;;6701037;88;20198;-74
2021/12/13 05:01:18;;;;;;;8.57;3.40;;;7.60;99.90;;;;;;6698076;88;20318;-74
2021/12/13 05:11:19;;;;;;;6.53;3.17;;;7.60;99.90;;;;;;6701114;88;20230;-75
2021/12/13 05:21:27;;;;;;;6.82;3.75;;;7.50;99.90;;;;;;6698179;88;20188;-74
2021/12/13 05:31:29;;;;;;;7.72;3.50;;;7.50;99.90;;;;;;6706561;88;20208;-74
2021/12/13 05:41:30;;;;;;;5.05;2.92;;;7.50;99.90;;;;;;6697319;88;22537;-74
2021/12/13 05:51:54;;;;;;;4.53;3.00;;;7.60;99.90;;;;;;6698790;88;20250;-74
2021/12/13 06:02:18;;;;;;;4.35;2.40;;;7.60;99.90;;;;;;6702867;88;20821;-74
2021/12/13 06:12:46;;;;;;;4.62;2.37;;;7.90;99.90;;;;;;6700086;88;20214;-74
2021/12/13 06:22:47;;;;;;;5.03;2.70;;;7.80;99.90;;;;;;6703954;88;20622;-74
2021/12/13 06:33:14;;;;;;;3.87;2.33;;;7.90;99.90;;;;;;6709360;88;20242;-74
2021/12/13 06:43:45;;;;;;;4.75;2.80;;;7.90;99.90;;;;;;6701505;88;20321;-74
2021/12/13 06:54:02;;;;;;;4.95;2.42;;;7.90;99.90;;;;;;6700683;88;20179;-74
2021/12/13 07:04:07;;;;;;;6.80;2.65;;;8.00;99.90;;;;;;6698492;88;20194;-74
2021/12/13 07:14:13;;;;;;;4.70;2.70;;;7.90;99.90;;;;;;6703266;88;20183;-74
2021/12/13 07:24:17;;;;;;;4.90;2.40;;;8.00;99.90;;;;;;6710578;88;20180;-75
2021/12/13 07:34:20;;;;;;;6.03;2.90;;;7.90;99.90;;;;;;6710879;88;20698;-74
2021/12/13 07:44:35;;;;;;;5.10;2.20;;;8.10;99.90;;;;;;6704959;88;20264;-75
2021/12/13 07:54:42;;;;;;;4.50;2.50;;;8.00;99.90;;;;;;6699583;88;20314;-74
2021/12/13 08:04:47;;;;;;;4.70;2.97;;;8.20;99.90;;;;;;6698368;88;20333;-74
2021/12/13 08:14:51;;;;;;;5.60;2.47;;;8.20;99.90;;;;;;6693628;88;20600;-75
2021/12/13 08:24:53;;;;;;;4.32;2.75;;;8.20;99.90;;;;;;6699204;88;20226;-74
2021/12/13 08:34:58;;;;;;;4.97;2.70;;;8.20;99.90;;;;;;6698949;88;20203;-75
2021/12/13 08:45:19;;;;;;;4.30;2.40;;;8.40;99.90;;;;;;6702218;88;20367;-74
2021/12/13 08:55:33;;;;;;;4.25;2.53;;;8.40;99.90;;;;;;6700953;88;20411;-74
2021/12/13 09:05:56;;;;;;;4.35;2.60;;;8.60;99.90;;;;;;6698010;88;20211;-74
2021/12/13 09:15:57;;;;;;;3.92;2.30;;;8.60;99.90;;;;;;6702222;88;20180;-75
2021/12/13 09:26:09;;;;;;;5.37;2.28;;;8.80;99.90;;;;;;6694747;88;20218;-75
2021/12/13 09:36:47;;;;;;;5.22;2.53;;;8.90;99.90;;;;;;6692885;88;20191;-74
2021/12/13 09:47:10;;;;;;;3.47;2.20;;;9.00;99.90;;;;;;6689140;88;20258;-74
2021/12/13 09:57:22;;;;;;;4.45;2.30;;;9.20;99.90;;;;;;6702030;88;20235;-74
2021/12/13 10:07:27;;;;;;;3.85;2.20;;;9.20;99.90;;;;;;6696088;88;20797;-75
2021/12/13 10:17:33;;;;;;;4.57;2.60;;;9.30;99.90;;;;;;6692962;88;20245;-75
2021/12/13 10:27:34;;;;;;;5.17;2.27;;;9.30;99.90;;;;;;6698025;88;20282;-75
2021/12/13 10:37:37;;;;;;;4.50;2.37;;;9.40;99.90;;;;;;6702974;88;20190;-76
2021/12/13 10:47:42;;;;;;;4.35;2.05;;;9.50;99.90;;;;;;6693059;88;20590;-75
2021/12/13 10:57:48;;;;;;;5.82;2.28;;;9.60;99.90;;;;;;6697288;88;20755;-75
2021/12/13 11:07:49;;;;;;;5.87;2.70;;;9.60;99.90;;;;;;6696897;88;20199;-75
2021/12/13 11:17:50;;;;;;;4.47;2.53;;;9.70;99.90;;;;;;6700323;88;20764;-75
2021/12/13 11:27:51;;;;;;;6.12;2.65;;;9.80;99.90;;;;;;6692044;88;20194;-75
2021/12/13 11:38:16;;;;;;;4.43;2.30;;;10.00;99.90;;;;;;6698462;88;20277;-75
2021/12/13 11:48:35;;;;;;;2.65;1.40;;;10.10;99.90;;;;;;6689718;88;20198;-75
2021/12/13 11:59:03;;;;;;;1.02;0.30;;;10.70;99.90;;;;;;6687557;88;20664;-75
2021/12/13 12:09:38;;;;;;;0.50;0.22;;;11.00;99.90;;;;;;6683674;88;20234;-75
2021/12/13 12:19:40;;;;;;;0.90;0.20;;;11.10;99.90;;;;;;6685737;88;20273;-74
2021/12/13 12:29:54;;;;;;;0.50;0.20;;;11.20;99.90;;;;;;6689511;88;20690;-75
2021/12/13 12:40:04;;;;;;;0.70;0.20;;;10.90;99.90;;;;;;6688128;88;20727;-75
2021/12/13 12:50:30;;;;;;;0.50;0.10;;;10.90;99.90;;;;;;6688917;88;20214;-75
2021/12/13 13:00:30;;;;;;;0.50;0.20;;;10.90;99.90;;;;;;6685519;88;20244;-75
2021/12/13 13:20:54;;;;;;;1.00;0.30;;;10.90;99.90;;;;;;6686236;88;20604;-75
2021/12/13 13:31:07;;;;;;;1.20;0.45;;;10.80;99.90;;;;;;6688029;88;20178;-74
2021/12/13 13:41:12;;;;;;;0.70;0.37;;;10.60;99.90;;;;;;6691728;88;20214;-75
2021/12/13 13:51:17;;;;;;;1.65;0.32;;;10.50;99.90;;;;;;6691926;88;20198;-75
2021/12/13 14:01:32;;;;;;;1.33;0.80;;;10.40;99.90;;;;;;6690232;88;20638;-74
2021/12/13 14:11:46;;;;;;;0.90;0.50;;;10.40;99.90;;;;;;6688169;88;21118;-75
2021/12/13 14:21:47;;;;;;;0.90;0.40;;;10.40;99.90;;;;;;6687552;88;20291;-74
2021/12/13 14:31:48;;;;;;;3.70;0.88;;;10.30;99.90;;;;;;6690213;88;20367;-75
2021/12/13 14:41:52;;;;;;;1.60;0.50;;;10.20;99.90;;;;;;6690414;88;20274;-75
2021/12/13 14:52:03;;;;;;;1.17;0.40;;;10.20;99.90;;;;;;6686860;88;20211;-75
2021/12/13 15:02:17;;;;;;;2.00;0.70;;;10.10;99.90;;;;;;6686634;88;20239;-75
2021/12/13 15:12:22;;;;;;;1.20;0.57;;;10.00;99.90;;;;;;6691329;88;20203;-76
2021/12/13 15:22:25;;;;;;;1.70;0.50;;;9.80;99.90;;;;;;6696908;88;20216;-75
2021/12/13 15:32:26;;;;;;;1.23;0.52;;;9.80;99.90;;;;;;6695641;77;20542;-76
2021/12/13 15:42:27;;;;;;;3.83;0.93;;;9.70;99.90;;;;;;6699347;88;20225;-77
2021/12/13 15:52:28;;;;;;;5.72;3.15;;;9.70;99.90;;;;;;6699674;88;20202;-77
2021/12/13 16:02:34;;;;;;;5.23;1.10;;;9.70;99.90;;;;;;6693701;88;20228;-76
2021/12/13 16:12:38;;;;;;;2.47;1.20;;;9.70;99.90;;;;;;6697717;88;21058;-76
2021/12/13 16:22:44;;;;;;;3.10;1.48;;;9.70;99.90;;;;;;6695483;88;20317;-74
2021/12/13 16:32:44;;;;;;;;;;;9.70;99.90;;;;;;6690976;88;20581;-75
2021/12/13 16:42:45;;;;;;;1.20;0.60;;;9.80;99.90;;;;;;6694321;88;20119;-75
2021/12/13 16:52:51;;;;;;;2.25;0.98;;;9.40;99.90;;;;;;6689508;88;20318;-74
2021/12/13 17:02:52;;;;;;;;;;;9.60;99.90;;;;;;6691130;88;20375;-74
2021/12/13 17:13:05;;;;;;;2.90;0.80;;;9.60;99.90;;;;;;6695507;88;20051;-75
2021/12/13 17:23:24;;;;;;;2.22;0.70;;;9.40;99.90;;;;;;6692986;88;20338;-74
2021/12/13 17:33:34;;;;;;;2.53;1.00;;;9.30;99.90;;;;;;6692633;88;20419;-77
2021/12/13 17:43:37;;;;;;;2.10;1.00;;;9.40;99.90;;;;;;6696798;88;21012;-76
2021/12/13 17:54:10;;;;;;;1.30;0.60;;;9.30;99.90;;;;;;6694537;88;20923;-76
2021/12/13 18:04:23;;;;;;;1.87;0.60;;;9.30;99.90;;;;;;6697178;88;20190;-76
2021/12/13 18:14:48;;;;;;;2.72;1.20;;;9.20;99.90;;;;;;6698656;88;20246;-76
2021/12/13 18:24:49;;;;;;;2.28;1.15;;;9.20;99.90;;;;;;6702328;88;20219;-77
2021/12/13 18:34:49;;;;;;;1.20;0.47;;;9.10;99.90;;;;;;6706151;88;20314;-77
2021/12/13 18:45:06;;;;;;;1.73;0.75;;;9.20;99.90;;;;;;6701111;88;20234;-77
2021/12/13 18:55:30;;;;;;;1.25;0.60;;;9.20;99.90;;;;;;6697415;88;20197;-76
2021/12/13 19:05:54;;;;;;;1.60;0.65;;;9.20;99.90;;;;;;6697882;88;20276;-76
2021/12/13 19:15:59;;;;;;;1.02;0.50;;;9.10;99.90;;;;;;6698586;88;20211;-76
2021/12/13 19:26:12;;;;;;;1.30;0.52;;;9.00;99.90;;;;;;6701297;88;20250;-77
2021/12/13 19:36:22;;;;;;;1.70;0.80;;;9.00;99.90;;;;;;6697474;88;20220;-76
2021/12/13 19:46:35;;;;;;;1.40;0.60;;;9.00;99.90;;;;;;6690232;88;20213;-77
2021/12/13 19:56:42;;;;;;;2.60;0.70;;;9.00;99.90;;;;;;6705262;88;20296;-76
2021/12/13 20:06:49;;;;;;;2.40;1.10;;;8.90;99.90;;;;;;6703269;88;20189;-77
2021/12/13 20:17:03;;;;;;;2.75;1.12;;;8.80;99.90;;;;;;6705141;88;20718;-77
2021/12/13 20:27:15;;;;;;;1.52;0.80;;;8.70;99.90;;;;;;6702458;88;20216;-77
2021/12/13 20:37:36;;;;;;;1.17;0.52;;;8.80;99.90;;;;;;6693368;88;20201;-76
2021/12/13 20:47:40;;;;;;;2.58;1.00;;;8.80;99.90;;;;;;6701175;88;20317;-77
2021/12/13 20:57:48;;;;;;;1.40;0.70;;;8.80;99.90;;;;;;6702348;88;20211;-77
2021/12/13 21:07:58;;;;;;;1.40;0.73;;;8.60;99.90;;;;;;6701902;88;20200;-77
2021/12/13 21:18:07;;;;;;;1.67;0.80;;;8.60;99.90;;;;;;6698630;88;20203;-76
2021/12/13 21:48:41;;;;;;;2.10;1.20;;;8.70;99.90;;;;;;6697458;88;20198;-75
2021/12/13 21:58:49;;;;;;;2.28;1.08;;;8.60;99.90;;;;;;6696658;88;20208;-75
2021/12/13 22:08:54;;;;;;;2.42;1.20;;;8.60;99.90;;;;;;6696955;88;20241;-75
2021/12/13 22:19:12;;;;;;;2.72;1.20;;;8.90;99.90;;;;;;6698979;88;20705;-75
2021/12/13 22:29:15;;;;;;;2.15;1.20;;;8.90;99.90;;;;;;6700654;88;20183;-75
2021/12/13 22:39:17;;;;;;;1.92;0.90;;;8.90;99.90;;;;;;6700219;88;20936;-75
2021/12/13 22:49:25;;;;;;;2.03;0.88;;;8.70;99.90;;;;;;6700752;88;20232;-75
2021/12/13 22:59:31;;;;;;;4.55;1.50;;;8.50;99.90;;;;;;6693970;88;20709;-75
2021/12/13 23:09:47;;;;;;;2.35;1.10;;;8.60;99.90;;;;;;6699447;88;20689;-75
2021/12/13 23:19:48;;;;;;;2.60;1.00;;;8.70;99.90;;;;;;6700284;88;20218;-75
2021/12/13 23:30:03;;;;;;;2.80;1.10;;;8.50;99.90;;;;;;6699339;88;20356;-75
2021/12/13 23:50:59;;;;;;;4.15;1.10;;;8.50;99.90;;;;;;6660672;88;20171;-75
